sensor_id;sensor_type;location;lat;lon;timestamp;temperature;humidity
38866;DHT22;62686;48.984;8.394;2023-04-06T00:00:52;-1.30;99.90
38866;DHT22;62686;48.984;8.394;2023-04-06T00:03:21;-1.40;99.90
38866;DHT22;62686;48.984;8.394;2023-04-06T00:05:49;-1.40;99.90
38866;DHT22;62686;48.984;8.394;2023-04-06T00:08:18;-1.40;99.90
38866;DHT22;62686;48.984;8.394;2023-04-06T00:10:48;-1.30;99.90
38866;DHT22;62686;48.984;8.394;2023-04-06T00:13:16;-1.30;99.90
38866;DHT22;62686;48.984;8.394;2023-04-06T00:15:44;-1.30;99.90
38866;DHT22;62686;48.984;8.394;2023-04-06T00:18:14;-1.40;99.90
38866;DHT22;62686;48.984;8.394;2023-04-06T00:20:42;-1.40;99.90
38866;DHT22;62686;48.984;8.394;2023-04-06T00:23:11;-1.40;99.90
38866;DHT22;62686;48.984;8.394;2023-04-06T00:25:39;-1.40;99.90
38866;DHT22;62686;48.984;8.394;2023-04-06T00:28:07;-1.50;99.90
38866;DHT22;62686;48.984;8.394;2023-04-06T00:30:36;-1.50;99.90
38866;DHT22;62686;48.984;8.394;2023-04-06T00:33:04;-1.60;99.90
38866;DHT22;62686;48.984;8.394;2023-04-06T00:35:34;-1.60;99.90
38866;DHT22;62686;48.984;8.394;2023-04-06T00:38:03;-1.50;99.90
38866;DHT22;62686;48.984;8.394;2023-04-06T00:40:31;-1.50;99.90
38866;DHT22;62686;48.984;8.394;2023-04-06T00:43:01;-1.50;99.90
38866;DHT22;62686;48.984;8.394;2023-04-06T00:45:29;-1.60;99.90
38866;DHT22;62686;48.984;8.394;2023-04-06T00:47:58;-1.50;99.90
38866;DHT22;62686;48.984;8.394;2023-04-06T00:50:26;-1.40;99.90
38866;DHT22;62686;48.984;8.394;2023-04-06T00:52:56;-1.40;99.90
38866;DHT22;62686;48.984;8.394;2023-04-06T00:55:24;-1.30;99.90
38866;DHT22;62686;48.984;8.394;2023-04-06T00:57:53;-1.30;99.90
38866;DHT22;62686;48.984;8.394;2023-04-06T01:00:21;-1.20;99.90
38866;DHT22;62686;48.984;8.394;2023-04-06T01:02:50;-1.10;99.90
38866;DHT22;62686;48.984;8.394;2023-04-06T01:05:18;-1.20;99.90
38866;DHT22;62686;48.984;8.394;2023-04-06T01:07:47;-1.40;99.90
38866;DHT22;62686;48.984;8.394;2023-04-06T01:10:24;-1.50;99.90
38866;DHT22;62686;48.984;8.394;2023-04-06T01:12:53;-1.60;99.90
38866;DHT22;62686;48.984;8.394;2023-04-06T01:15:21;-1.60;99.90
38866;DHT22;62686;48.984;8.394;2023-04-06T01:17:50;-1.50;99.90
38866;DHT22;62686;48.984;8.394;2023-04-06T01:20:18;-1.60;99.90
38866;DHT22;62686;48.984;8.394;2023-04-06T01:22:48;-1.70;99.90
38866;DHT22;62686;48.984;8.394;2023-04-06T01:25:17;-1.70;99.90
38866;DHT22;62686;48.984;8.394;2023-04-06T01:27:45;-1.90;99.90
38866;DHT22;62686;48.984;8.394;2023-04-06T01:30:14;-1.80;99.90
38866;DHT22;62686;48.984;8.394;2023-04-06T01:32:44;-1.80;99.90
38866;DHT22;62686;48.984;8.394;2023-04-06T01:35:12;-1.80;99.90
38866;DHT22;62686;48.984;8.394;2023-04-06T01:37:41;-1.80;99.90
38866;DHT22;62686;48.984;8.394;2023-04-06T01:40:11;-1.90;99.90
38866;DHT22;62686;48.984;8.394;2023-04-06T01:42:40;-1.80;99.90
38866;DHT22;62686;48.984;8.394;2023-04-06T01:45:09;-1.80;99.90
38866;DHT22;62686;48.984;8.394;2023-04-06T01:47:38;-1.90;99.90
38866;DHT22;62686;48.984;8.394;2023-04-06T01:50:07;-2.00;99.90
38866;DHT22;62686;48.984;8.394;2023-04-06T01:52:35;-2.00;99.90
38866;DHT22;62686;48.984;8.394;2023-04-06T01:55:04;-2.00;99.90
38866;DHT22;62686;48.984;8.394;2023-04-06T01:57:34;-2.10;99.90
38866;DHT22;62686;48.984;8.394;2023-04-06T02:00:03;-2.20;99.90
38866;DHT22;62686;48.984;8.394;2023-04-06T02:02:32;-2.20;99.90
38866;DHT22;62686;48.984;8.394;2023-04-06T02:05:01;-2.20;99.90
38866;DHT22;62686;48.984;8.394;2023-04-06T02:07:29;-2.30;99.90
38866;DHT22;62686;48.984;8.394;2023-04-06T02:09:58;-2.30;99.90
38866;DHT22;62686;48.984;8.394;2023-04-06T02:12:26;-2.30;99.90
38866;DHT22;62686;48.984;8.394;2023-04-06T02:14:58;-2.30;99.90
38866;DHT22;62686;48.984;8.394;2023-04-06T02:17:27;-2.30;99.90
38866;DHT22;62686;48.984;8.394;2023-04-06T02:19:55;-2.30;99.90
38866;DHT22;62686;48.984;8.394;2023-04-06T02:22:23;-2.30;99.90
38866;DHT22;62686;48.984;8.394;2023-04-06T02:24:52;-2.30;99.90
38866;DHT22;62686;48.984;8.394;2023-04-06T02:27:20;-2.40;99.90
38866;DHT22;62686;48.984;8.394;2023-04-06T02:29:48;-2.40;99.90
38866;DHT22;62686;48.984;8.394;2023-04-06T02:32:18;-2.40;99.90
38866;DHT22;62686;48.984;8.394;2023-04-06T02:34:46;-2.30;99.90
38866;DHT22;62686;48.984;8.394;2023-04-06T02:37:14;-2.30;99.90
38866;DHT22;62686;48.984;8.394;2023-04-06T02:39:43;-2.30;99.90
38866;DHT22;62686;48.984;8.394;2023-04-06T02:42:11;-2.30;99.90
38866;DHT22;62686;48.984;8.394;2023-04-06T02:44:42;-2.40;99.90
38866;DHT22;62686;48.984;8.394;2023-04-06T02:47:10;-2.40;99.90
38866;DHT22;62686;48.984;8.394;2023-04-06T02:49:40;-2.40;99.90
38866;DHT22;62686;48.984;8.394;2023-04-06T02:52:08;-2.30;99.90
38866;DHT22;62686;48.984;8.394;2023-04-06T02:54:36;-2.30;99.90
38866;DHT22;62686;48.984;8.394;2023-04-06T02:57:04;-2.20;99.90
38866;DHT22;62686;48.984;8.394;2023-04-06T02:59:33;-2.10;99.90
38866;DHT22;62686;48.984;8.394;2023-04-06T03:02:01;-1.90;99.90
38866;DHT22;62686;48.984;8.394;2023-04-06T03:04:30;-2.00;99.90
38866;DHT22;62686;48.984;8.394;2023-04-06T03:06:59;-2.00;99.90
38866;DHT22;62686;48.984;8.394;2023-04-06T03:09:28;-2.10;99.90
38866;DHT22;62686;48.984;8.394;2023-04-06T03:11:56;-2.30;99.90
38866;DHT22;62686;48.984;8.394;2023-04-06T03:14:24;-2.40;99.90
38866;DHT22;62686;48.984;8.394;2023-04-06T03:16:53;-2.40;99.90
38866;DHT22;62686;48.984;8.394;2023-04-06T03:19:21;-2.40;99.90
38866;DHT22;62686;48.984;8.394;2023-04-06T03:21:49;-2.50;99.90
38866;DHT22;62686;48.984;8.394;2023-04-06T03:24:19;-2.50;99.90
38866;DHT22;62686;48.984;8.394;2023-04-06T03:26:47;-2.50;99.90
38866;DHT22;62686;48.984;8.394;2023-04-06T03:29:15;-2.60;99.90
38866;DHT22;62686;48.984;8.394;2023-04-06T03:31:44;-2.50;99.90
38866;DHT22;62686;48.984;8.394;2023-04-06T03:34:12;-2.50;99.90
38866;DHT22;62686;48.984;8.394;2023-04-06T03:36:40;-2.40;99.90
38866;DHT22;62686;48.984;8.394;2023-04-06T03:39:09;-2.50;99.90
38866;DHT22;62686;48.984;8.394;2023-04-06T03:41:38;-2.50;99.90
38866;DHT22;62686;48.984;8.394;2023-04-06T03:44:07;-2.50;99.90
38866;DHT22;62686;48.984;8.394;2023-04-06T03:46:35;-2.50;99.90
38866;DHT22;62686;48.984;8.394;2023-04-06T03:49:03;-2.50;99.90
38866;DHT22;62686;48.984;8.394;2023-04-06T03:51:31;-2.50;99.90
38866;DHT22;62686;48.984;8.394;2023-04-06T03:54:00;-2.50;99.90
38866;DHT22;62686;48.984;8.394;2023-04-06T03:56:28;-2.50;99.90
38866;DHT22;62686;48.984;8.394;2023-04-06T03:58:59;-2.40;99.90
38866;DHT22;62686;48.984;8.394;2023-04-06T04:01:28;-2.40;99.90
38866;DHT22;62686;48.984;8.394;2023-04-06T04:03:56;-2.40;99.90
38866;DHT22;62686;48.984;8.394;2023-04-06T04:06:25;-2.50;99.90
38866;DHT22;62686;48.984;8.394;2023-04-06T04:08:53;-2.50;99.90
38866;DHT22;62686;48.984;8.394;2023-04-06T04:11:22;-2.50;99.90
38866;DHT22;62686;48.984;8.394;2023-04-06T04:13:50;-2.50;99.90
38866;DHT22;62686;48.984;8.394;2023-04-06T04:16:20;-2.50;99.90
38866;DHT22;62686;48.984;8.394;2023-04-06T04:18:48;-2.60;99.90
38866;DHT22;62686;48.984;8.394;2023-04-06T04:21:16;-2.60;99.90
38866;DHT22;62686;48.984;8.394;2023-04-06T04:23:45;-2.70;99.90
38866;DHT22;62686;48.984;8.394;2023-04-06T04:26:13;-2.70;99.90
38866;DHT22;62686;48.984;8.394;2023-04-06T04:28:41;-2.70;99.90
38866;DHT22;62686;48.984;8.394;2023-04-06T04:31:09;-2.70;99.90
38866;DHT22;62686;48.984;8.394;2023-04-06T04:33:39;-2.70;99.90
38866;DHT22;62686;48.984;8.394;2023-04-06T04:36:08;-2.70;99.90
38866;DHT22;62686;48.984;8.394;2023-04-06T04:38:37;-2.70;99.90
38866;DHT22;62686;48.984;8.394;2023-04-06T04:41:05;-2.70;99.90
38866;DHT22;62686;48.984;8.394;2023-04-06T04:43:34;-2.70;99.90
38866;DHT22;62686;48.984;8.394;2023-04-06T04:46:02;-2.70;99.90
38866;DHT22;62686;48.984;8.394;2023-04-06T04:48:31;-2.60;99.90
38866;DHT22;62686;48.984;8.394;2023-04-06T04:51:01;-2.70;99.90
38866;DHT22;62686;48.984;8.394;2023-04-06T04:53:33;-2.60;99.90
38866;DHT22;62686;48.984;8.394;2023-04-06T04:56:02;-2.50;99.90
38866;DHT22;62686;48.984;8.394;2023-04-06T04:58:30;-2.50;99.90
38866;DHT22;62686;48.984;8.394;2023-04-06T05:00:59;-2.50;99.90
38866;DHT22;62686;48.984;8.394;2023-04-06T05:03:29;-2.50;99.90
38866;DHT22;62686;48.984;8.394;2023-04-06T05:05:58;-2.40;99.90
38866;DHT22;62686;48.984;8.394;2023-04-06T05:08:30;-2.40;99.90
38866;DHT22;62686;48.984;8.394;2023-04-06T05:10:59;-2.40;99.90
38866;DHT22;62686;48.984;8.394;2023-04-06T05:13:29;-2.40;99.90
38866;DHT22;62686;48.984;8.394;2023-04-06T05:15:57;-2.40;99.90
38866;DHT22;62686;48.984;8.394;2023-04-06T05:18:26;-2.30;99.90
38866;DHT22;62686;48.984;8.394;2023-04-06T05:20:56;-2.20;99.90
38866;DHT22;62686;48.984;8.394;2023-04-06T05:23:36;-2.10;99.90
38866;DHT22;62686;48.984;8.394;2023-04-06T05:26:05;-2.00;99.90
38866;DHT22;62686;48.984;8.394;2023-04-06T05:28:41;-1.90;99.90
38866;DHT22;62686;48.984;8.394;2023-04-06T05:31:12;-1.80;99.90
38866;DHT22;62686;48.984;8.394;2023-04-06T05:36:20;-1.70;99.90
38866;DHT22;62686;48.984;8.394;2023-04-06T05:38:55;-1.60;99.90
38866;DHT22;62686;48.984;8.394;2023-04-06T05:44:14;-1.40;99.90
38866;DHT22;62686;48.984;8.394;2023-04-06T05:49:25;-1.20;99.90
38866;DHT22;62686;48.984;8.394;2023-04-06T05:51:54;-1.00;99.90
38866;DHT22;62686;48.984;8.394;2023-04-06T05:54:24;-0.80;99.90
38866;DHT22;62686;48.984;8.394;2023-04-06T05:56:55;-0.60;99.90
38866;DHT22;62686;48.984;8.394;2023-04-06T05:59:23;-0.50;99.90
38866;DHT22;62686;48.984;8.394;2023-04-06T06:01:53;-0.30;99.90
38866;DHT22;62686;48.984;8.394;2023-04-06T06:04:22;-0.20;99.90
38866;DHT22;62686;48.984;8.394;2023-04-06T06:06:51;0.00;99.90
38866;DHT22;62686;48.984;8.394;2023-04-06T06:09:20;0.10;99.90
38866;DHT22;62686;48.984;8.394;2023-04-06T06:11:50;0.30;99.90
38866;DHT22;62686;48.984;8.394;2023-04-06T06:14:21;0.40;99.90
38866;DHT22;62686;48.984;8.394;2023-04-06T06:16:49;0.50;99.90
38866;DHT22;62686;48.984;8.394;2023-04-06T06:19:18;0.70;99.90
38866;DHT22;62686;48.984;8.394;2023-04-06T06:21:46;0.90;99.90
38866;DHT22;62686;48.984;8.394;2023-04-06T06:24:14;1.10;99.90
38866;DHT22;62686;48.984;8.394;2023-04-06T06:26:43;1.20;99.90
38866;DHT22;62686;48.984;8.394;2023-04-06T06:29:13;1.40;99.90
38866;DHT22;62686;48.984;8.394;2023-04-06T06:31:42;1.60;99.90
38866;DHT22;62686;48.984;8.394;2023-04-06T06:34:24;1.90;99.90
38866;DHT22;62686;48.984;8.394;2023-04-06T06:36:53;2.70;99.90
38866;DHT22;62686;48.984;8.394;2023-04-06T06:39:25;4.20;99.90
38866;DHT22;62686;48.984;8.394;2023-04-06T06:41:54;5.40;99.90
38866;DHT22;62686;48.984;8.394;2023-04-06T06:44:25;6.00;99.90
38866;DHT22;62686;48.984;8.394;2023-04-06T06:46:59;6.20;99.90
38866;DHT22;62686;48.984;8.394;2023-04-06T06:49:27;7.10;99.90
38866;DHT22;62686;48.984;8.394;2023-04-06T06:51:56;8.50;99.90
38866;DHT22;62686;48.984;8.394;2023-04-06T06:54:24;9.90;99.90
38866;DHT22;62686;48.984;8.394;2023-04-06T06:56:52;11.10;99.90
38866;DHT22;62686;48.984;8.394;2023-04-06T06:59:22;11.50;99.90
38866;DHT22;62686;48.984;8.394;2023-04-06T07:01:51;12.40;99.90
38866;DHT22;62686;48.984;8.394;2023-04-06T07:04:19;13.00;99.90
38866;DHT22;62686;48.984;8.394;2023-04-06T07:06:48;13.60;99.90
38866;DHT22;62686;48.984;8.394;2023-04-06T07:09:17;13.50;99.90
38866;DHT22;62686;48.984;8.394;2023-04-06T07:11:45;13.60;97.70
38866;DHT22;62686;48.984;8.394;2023-04-06T07:14:15;13.80;99.00
38866;DHT22;62686;48.984;8.394;2023-04-06T07:16:45;14.10;97.60
38866;DHT22;62686;48.984;8.394;2023-04-06T07:19:15;14.20;96.00
38866;DHT22;62686;48.984;8.394;2023-04-06T07:21:44;14.30;96.00
38866;DHT22;62686;48.984;8.394;2023-04-06T07:24:12;14.80;94.40
38866;DHT22;62686;48.984;8.394;2023-04-06T07:26:41;14.90;94.10
38866;DHT22;62686;48.984;8.394;2023-04-06T07:29:09;15.20;94.20
38866;DHT22;62686;48.984;8.394;2023-04-06T07:31:39;15.60;92.70
38866;DHT22;62686;48.984;8.394;2023-04-06T07:34:09;16.00;92.20
38866;DHT22;62686;48.984;8.394;2023-04-06T07:36:38;16.10;91.90
38866;DHT22;62686;48.984;8.394;2023-04-06T07:39:07;16.40;90.30
38866;DHT22;62686;48.984;8.394;2023-04-06T07:41:36;16.70;89.40
38866;DHT22;62686;48.984;8.394;2023-04-06T07:44:04;17.10;86.50
38866;DHT22;62686;48.984;8.394;2023-04-06T07:46:35;17.30;88.90
38866;DHT22;62686;48.984;8.394;2023-04-06T07:49:06;17.70;83.10
38866;DHT22;62686;48.984;8.394;2023-04-06T07:51:37;18.00;84.00
38866;DHT22;62686;48.984;8.394;2023-04-06T07:54:06;16.30;80.10
38866;DHT22;62686;48.984;8.394;2023-04-06T07:56:34;16.90;78.70
38866;DHT22;62686;48.984;8.394;2023-04-06T07:59:03;17.00;78.40
38866;DHT22;62686;48.984;8.394;2023-04-06T08:01:31;16.50;78.20
38866;DHT22;62686;48.984;8.394;2023-04-06T08:03:59;18.10;81.20
38866;DHT22;62686;48.984;8.394;2023-04-06T08:06:29;17.50;76.30
38866;DHT22;62686;48.984;8.394;2023-04-06T08:08:59;16.10;78.90
38866;DHT22;62686;48.984;8.394;2023-04-06T08:11:29;17.10;78.40
38866;DHT22;62686;48.984;8.394;2023-04-06T08:13:57;18.00;81.30
38866;DHT22;62686;48.984;8.394;2023-04-06T08:16:26;19.20;75.70
38866;DHT22;62686;48.984;8.394;2023-04-06T08:18:54;18.00;73.60
38866;DHT22;62686;48.984;8.394;2023-04-06T08:21:22;17.00;75.40
38866;DHT22;62686;48.984;8.394;2023-04-06T08:23:50;17.10;77.70
38866;DHT22;62686;48.984;8.394;2023-04-06T08:26:20;18.40;73.50
38866;DHT22;62686;48.984;8.394;2023-04-06T08:28:49;18.80;72.60
38866;DHT22;62686;48.984;8.394;2023-04-06T08:31:17;19.70;70.70
38866;DHT22;62686;48.984;8.394;2023-04-06T08:33:45;19.00;71.50
38866;DHT22;62686;48.984;8.394;2023-04-06T08:36:24;19.50;69.50
38866;DHT22;62686;48.984;8.394;2023-04-06T08:38:58;19.80;74.80
38866;DHT22;62686;48.984;8.394;2023-04-06T08:41:28;20.30;72.10
38866;DHT22;62686;48.984;8.394;2023-04-06T08:43:58;20.50;71.40
38866;DHT22;62686;48.984;8.394;2023-04-06T08:46:29;20.70;72.60
38866;DHT22;62686;48.984;8.394;2023-04-06T08:48:58;20.10;68.60
38866;DHT22;62686;48.984;8.394;2023-04-06T08:51:28;20.50;67.40
38866;DHT22;62686;48.984;8.394;2023-04-06T08:53:58;20.20;66.40
38866;DHT22;62686;48.984;8.394;2023-04-06T08:56:31;19.50;65.80
38866;DHT22;62686;48.984;8.394;2023-04-06T08:59:00;20.10;69.30
38866;DHT22;62686;48.984;8.394;2023-04-06T09:01:29;21.00;66.10
38866;DHT22;62686;48.984;8.394;2023-04-06T09:03:59;20.40;69.00
38866;DHT22;62686;48.984;8.394;2023-04-06T09:06:28;21.30;66.40
38866;DHT22;62686;48.984;8.394;2023-04-06T09:08:57;20.10;64.20
38866;DHT22;62686;48.984;8.394;2023-04-06T09:11:26;20.60;67.80
38866;DHT22;62686;48.984;8.394;2023-04-06T09:13:56;20.20;64.00
38866;DHT22;62686;48.984;8.394;2023-04-06T09:16:25;20.10;64.70
38866;DHT22;62686;48.984;8.394;2023-04-06T09:18:53;18.60;66.40
38866;DHT22;62686;48.984;8.394;2023-04-06T09:21:23;18.50;67.40
38866;DHT22;62686;48.984;8.394;2023-04-06T09:23:58;19.00;68.20
38866;DHT22;62686;48.984;8.394;2023-04-06T09:26:28;21.20;66.70
38866;DHT22;62686;48.984;8.394;2023-04-06T09:29:00;20.00;64.00
38866;DHT22;62686;48.984;8.394;2023-04-06T09:31:33;19.00;66.10
38866;DHT22;62686;48.984;8.394;2023-04-06T09:34:21;19.70;68.40
38866;DHT22;62686;48.984;8.394;2023-04-06T09:36:53;20.30;65.60
38866;DHT22;62686;48.984;8.394;2023-04-06T09:39:22;20.80;64.70
38866;DHT22;62686;48.984;8.394;2023-04-06T09:41:53;21.20;66.20
38866;DHT22;62686;48.984;8.394;2023-04-06T09:44:25;20.70;67.70
38866;DHT22;62686;48.984;8.394;2023-04-06T09:46:54;19.30;63.00
38866;DHT22;62686;48.984;8.394;2023-04-06T09:49:27;18.80;67.40
38866;DHT22;62686;48.984;8.394;2023-04-06T09:51:59;17.80;66.70
38866;DHT22;62686;48.984;8.394;2023-04-06T09:54:29;16.60;67.20
38866;DHT22;62686;48.984;8.394;2023-04-06T09:57:01;15.50;72.60
38866;DHT22;62686;48.984;8.394;2023-04-06T09:59:40;14.90;74.10
38866;DHT22;62686;48.984;8.394;2023-04-06T10:02:16;14.00;74.90
38866;DHT22;62686;48.984;8.394;2023-04-06T10:04:52;13.30;79.50
38866;DHT22;62686;48.984;8.394;2023-04-06T10:07:22;13.00;80.10
38866;DHT22;62686;48.984;8.394;2023-04-06T10:09:51;13.30;80.60
38866;DHT22;62686;48.984;8.394;2023-04-06T10:12:21;14.10;80.40
38866;DHT22;62686;48.984;8.394;2023-04-06T10:14:51;14.60;76.20
38866;DHT22;62686;48.984;8.394;2023-04-06T10:17:20;14.60;77.30
38866;DHT22;62686;48.984;8.394;2023-04-06T10:19:54;14.70;79.60
38866;DHT22;62686;48.984;8.394;2023-04-06T10:22:26;14.60;77.90
38866;DHT22;62686;48.984;8.394;2023-04-06T10:24:59;14.30;77.00
38866;DHT22;62686;48.984;8.394;2023-04-06T10:27:28;14.20;78.90
38866;DHT22;62686;48.984;8.394;2023-04-06T10:30:03;14.00;74.80
38866;DHT22;62686;48.984;8.394;2023-04-06T10:32:36;13.90;79.00
38866;DHT22;62686;48.984;8.394;2023-04-06T10:35:06;14.10;76.30
38866;DHT22;62686;48.984;8.394;2023-04-06T10:37:51;14.00;76.70
38866;DHT22;62686;48.984;8.394;2023-04-06T10:40:24;13.80;76.20
38866;DHT22;62686;48.984;8.394;2023-04-06T10:42:53;13.70;76.10
38866;DHT22;62686;48.984;8.394;2023-04-06T10:45:25;13.90;75.40
38866;DHT22;62686;48.984;8.394;2023-04-06T10:47:54;14.00;74.60
38866;DHT22;62686;48.984;8.394;2023-04-06T10:50:23;13.50;74.40
38866;DHT22;62686;48.984;8.394;2023-04-06T10:53:02;13.40;76.40
38866;DHT22;62686;48.984;8.394;2023-04-06T10:55:31;13.70;75.60
38866;DHT22;62686;48.984;8.394;2023-04-06T10:57:59;13.50;78.30
38866;DHT22;62686;48.984;8.394;2023-04-06T11:00:29;13.60;74.10
38866;DHT22;62686;48.984;8.394;2023-04-06T11:03:05;13.80;73.80
38866;DHT22;62686;48.984;8.394;2023-04-06T11:05:33;14.30;79.40
38866;DHT22;62686;48.984;8.394;2023-04-06T11:08:03;14.80;76.30
38866;DHT22;62686;48.984;8.394;2023-04-06T11:10:31;15.30;76.90
38866;DHT22;62686;48.984;8.394;2023-04-06T11:13:00;16.00;76.00
38866;DHT22;62686;48.984;8.394;2023-04-06T11:15:35;16.80;71.20
38866;DHT22;62686;48.984;8.394;2023-04-06T11:18:04;17.00;71.20
38866;DHT22;62686;48.984;8.394;2023-04-06T11:20:33;16.60;69.20
38866;DHT22;62686;48.984;8.394;2023-04-06T11:23:01;16.50;68.30
38866;DHT22;62686;48.984;8.394;2023-04-06T11:25:30;16.70;72.50
38866;DHT22;62686;48.984;8.394;2023-04-06T11:27:59;17.10;67.40
38866;DHT22;62686;48.984;8.394;2023-04-06T11:30:28;17.50;66.30
38866;DHT22;62686;48.984;8.394;2023-04-06T11:33:01;17.40;67.00
38866;DHT22;62686;48.984;8.394;2023-04-06T11:35:31;18.00;65.40
38866;DHT22;62686;48.984;8.394;2023-04-06T11:38:03;17.30;62.00
38866;DHT22;62686;48.984;8.394;2023-04-06T11:40:31;16.90;66.60
38866;DHT22;62686;48.984;8.394;2023-04-06T11:43:00;17.30;66.60
38866;DHT22;62686;48.984;8.394;2023-04-06T11:45:39;17.60;66.10
38866;DHT22;62686;48.984;8.394;2023-04-06T11:48:18;17.70;62.70
38866;DHT22;62686;48.984;8.394;2023-04-06T11:50:47;17.90;61.80
38866;DHT22;62686;48.984;8.394;2023-04-06T11:53:16;18.20;61.50
38866;DHT22;62686;48.984;8.394;2023-04-06T11:55:44;19.10;61.60
38866;DHT22;62686;48.984;8.394;2023-04-06T11:58:14;19.70;58.30
38866;DHT22;62686;48.984;8.394;2023-04-06T12:00:43;19.90;58.10
38866;DHT22;62686;48.984;8.394;2023-04-06T12:03:15;19.20;61.80
38866;DHT22;62686;48.984;8.394;2023-04-06T12:05:44;20.10;61.90
38866;DHT22;62686;48.984;8.394;2023-04-06T12:08:13;20.00;60.30
38866;DHT22;62686;48.984;8.394;2023-04-06T12:10:41;19.80;56.80
38866;DHT22;62686;48.984;8.394;2023-04-06T12:13:09;19.10;57.40
38866;DHT22;62686;48.984;8.394;2023-04-06T12:15:38;18.70;56.80
38866;DHT22;62686;48.984;8.394;2023-04-06T12:18:06;19.50;57.10
38866;DHT22;62686;48.984;8.394;2023-04-06T12:20:36;19.20;59.40
38866;DHT22;62686;48.984;8.394;2023-04-06T12:23:04;19.80;57.60
38866;DHT22;62686;48.984;8.394;2023-04-06T12:25:33;20.60;57.50
38866;DHT22;62686;48.984;8.394;2023-04-06T12:28:01;21.70;57.50
38866;DHT22;62686;48.984;8.394;2023-04-06T12:30:29;22.80;56.10
38866;DHT22;62686;48.984;8.394;2023-04-06T12:32:59;22.20;53.00
38866;DHT22;62686;48.984;8.394;2023-04-06T12:35:27;22.90;54.10
38866;DHT22;62686;48.984;8.394;2023-04-06T12:37:57;23.50;54.80
38866;DHT22;62686;48.984;8.394;2023-04-06T12:40:25;22.80;53.70
38866;DHT22;62686;48.984;8.394;2023-04-06T12:42:54;23.00;52.80
38866;DHT22;62686;48.984;8.394;2023-04-06T12:45:22;23.40;53.20
38866;DHT22;62686;48.984;8.394;2023-04-06T12:47:51;22.40;51.50
38866;DHT22;62686;48.984;8.394;2023-04-06T12:50:19;21.80;51.20
38866;DHT22;62686;48.984;8.394;2023-04-06T12:52:48;20.60;52.70
38866;DHT22;62686;48.984;8.394;2023-04-06T12:55:18;20.70;54.60
38866;DHT22;62686;48.984;8.394;2023-04-06T12:57:47;20.80;61.50
38866;DHT22;62686;48.984;8.394;2023-04-06T13:00:16;21.20;54.40
38866;DHT22;62686;48.984;8.394;2023-04-06T13:02:45;21.20;52.20
38866;DHT22;62686;48.984;8.394;2023-04-06T13:05:14;20.50;50.20
38866;DHT22;62686;48.984;8.394;2023-04-06T13:07:45;20.40;55.10
38866;DHT22;62686;48.984;8.394;2023-04-06T13:10:14;19.50;51.60
38866;DHT22;62686;48.984;8.394;2023-04-06T13:12:44;18.20;53.00
38866;DHT22;62686;48.984;8.394;2023-04-06T13:15:13;18.20;53.90
38866;DHT22;62686;48.984;8.394;2023-04-06T13:17:42;17.90;51.70
38866;DHT22;62686;48.984;8.394;2023-04-06T13:20:11;17.70;52.70
38866;DHT22;62686;48.984;8.394;2023-04-06T13:22:40;18.60;53.50
38866;DHT22;62686;48.984;8.394;2023-04-06T13:25:08;19.00;51.20
38866;DHT22;62686;48.984;8.394;2023-04-06T13:27:36;19.00;49.70
38866;DHT22;62686;48.984;8.394;2023-04-06T13:30:08;18.90;50.80
38866;DHT22;62686;48.984;8.394;2023-04-06T13:32:37;18.60;49.80
38866;DHT22;62686;48.984;8.394;2023-04-06T13:35:06;19.10;51.10
38866;DHT22;62686;48.984;8.394;2023-04-06T13:37:35;19.60;49.90
38866;DHT22;62686;48.984;8.394;2023-04-06T13:40:04;20.60;50.00
38866;DHT22;62686;48.984;8.394;2023-04-06T13:42:33;20.80;48.60
38866;DHT22;62686;48.984;8.394;2023-04-06T13:45:02;20.00;49.90
38866;DHT22;62686;48.984;8.394;2023-04-06T13:47:32;18.50;47.60
38866;DHT22;62686;48.984;8.394;2023-04-06T13:50:01;18.40;49.40
38866;DHT22;62686;48.984;8.394;2023-04-06T13:52:30;17.90;51.40
38866;DHT22;62686;48.984;8.394;2023-04-06T13:54:58;18.30;51.10
38866;DHT22;62686;48.984;8.394;2023-04-06T13:57:27;18.90;53.80
38866;DHT22;62686;48.984;8.394;2023-04-06T13:59:56;19.30;51.00
38866;DHT22;62686;48.984;8.394;2023-04-06T14:02:24;19.70;53.80
38866;DHT22;62686;48.984;8.394;2023-04-06T14:04:55;19.20;50.30
38866;DHT22;62686;48.984;8.394;2023-04-06T14:07:24;18.10;51.10
38866;DHT22;62686;48.984;8.394;2023-04-06T14:09:52;18.00;50.80
38866;DHT22;62686;48.984;8.394;2023-04-06T14:12:20;18.30;53.50
38866;DHT22;62686;48.984;8.394;2023-04-06T14:14:48;18.30;50.90
38866;DHT22;62686;48.984;8.394;2023-04-06T14:17:16;18.50;52.80
38866;DHT22;62686;48.984;8.394;2023-04-06T14:19:45;17.70;53.30
38866;DHT22;62686;48.984;8.394;2023-04-06T14:22:15;18.00;55.40
38866;DHT22;62686;48.984;8.394;2023-04-06T14:24:43;18.10;55.40
38866;DHT22;62686;48.984;8.394;2023-04-06T14:27:11;18.20;54.90
38866;DHT22;62686;48.984;8.394;2023-04-06T14:29:40;18.20;54.00
38866;DHT22;62686;48.984;8.394;2023-04-06T14:32:09;17.90;54.40
38866;DHT22;62686;48.984;8.394;2023-04-06T14:34:38;17.00;54.90
38866;DHT22;62686;48.984;8.394;2023-04-06T14:37:06;16.20;56.10
38866;DHT22;62686;48.984;8.394;2023-04-06T14:39:36;15.80;57.20
38866;DHT22;62686;48.984;8.394;2023-04-06T14:42:04;15.80;58.40
38866;DHT22;62686;48.984;8.394;2023-04-06T14:44:33;16.00;58.40
38866;DHT22;62686;48.984;8.394;2023-04-06T14:47:03;16.10;58.40
38866;DHT22;62686;48.984;8.394;2023-04-06T14:49:32;16.20;57.90
38866;DHT22;62686;48.984;8.394;2023-04-06T14:52:00;16.50;57.30
38866;DHT22;62686;48.984;8.394;2023-04-06T14:54:28;16.90;58.80
38866;DHT22;62686;48.984;8.394;2023-04-06T14:56:58;16.90;58.00
38866;DHT22;62686;48.984;8.394;2023-04-06T14:59:27;17.00;57.30
38866;DHT22;62686;48.984;8.394;2023-04-06T15:01:55;16.70;58.10
38866;DHT22;62686;48.984;8.394;2023-04-06T15:04:24;16.60;60.10
38866;DHT22;62686;48.984;8.394;2023-04-06T15:06:52;16.40;58.30
38866;DHT22;62686;48.984;8.394;2023-04-06T15:09:21;16.40;60.00
38866;DHT22;62686;48.984;8.394;2023-04-06T15:11:49;16.30;59.10
38866;DHT22;62686;48.984;8.394;2023-04-06T15:14:19;16.40;63.00
38866;DHT22;62686;48.984;8.394;2023-04-06T15:16:47;16.30;59.80
38866;DHT22;62686;48.984;8.394;2023-04-06T15:19:15;16.00;61.30
38866;DHT22;62686;48.984;8.394;2023-04-06T15:21:44;15.50;59.80
38866;DHT22;62686;48.984;8.394;2023-04-06T15:24:12;15.20;61.70
38866;DHT22;62686;48.984;8.394;2023-04-06T15:26:41;15.10;61.20
38866;DHT22;62686;48.984;8.394;2023-04-06T15:29:10;15.20;61.00
38866;DHT22;62686;48.984;8.394;2023-04-06T15:31:42;15.10;60.70
38866;DHT22;62686;48.984;8.394;2023-04-06T15:34:10;15.20;63.90
38866;DHT22;62686;48.984;8.394;2023-04-06T15:36:38;15.00;61.80
38866;DHT22;62686;48.984;8.394;2023-04-06T15:39:07;14.90;66.60
38866;DHT22;62686;48.984;8.394;2023-04-06T15:41:35;14.80;62.80
38866;DHT22;62686;48.984;8.394;2023-04-06T15:44:03;14.50;64.00
38866;DHT22;62686;48.984;8.394;2023-04-06T15:46:31;14.40;64.20
38866;DHT22;62686;48.984;8.394;2023-04-06T15:49:02;14.20;64.30
38866;DHT22;62686;48.984;8.394;2023-04-06T15:51:30;14.10;64.90
38866;DHT22;62686;48.984;8.394;2023-04-06T15:53:59;14.20;66.80